Time;durP1;ratioP1;P1;durP2;ratioP2;P2;SDS_P1;SDS_P2;PMS_P1;PMS_P2;Temp;Humidity;BMP_temperature;BMP_pressure;BME280_temperature;BME280_humidity;BME280_pressure;Samples;Min_cycle;Max_cycle;Signal;HPM_P1;HPM_P2
2024/02/25 00:01:03;;;;;;;22.10;12.57;;;1.90;99.90;;;;;;5107623;28;20047;-62
2024/02/25 00:03:30;;;;;;;19.20;11.75;;;1.90;99.90;;;;;;5105586;28;20039;-62
2024/02/25 00:05:57;;;;;;;18.15;11.23;;;1.90;99.90;;;;;;5107060;28;20437;-64
2024/02/25 00:08:24;;;;;;;15.85;11.30;;;1.90;99.90;;;;;;5109216;28;20109;-66
2024/02/25 00:10:52;;;;;;;18.02;11.05;;;1.90;99.90;;;;;;5108431;28;20036;-62
2024/02/25 00:13:19;;;;;;;14.45;11.02;;;2.00;99.90;;;;;;5107423;28;20103;-61
2024/02/25 00:15:46;;;;;;;17.13;12.02;;;1.90;99.90;;;;;;5108368;28;20054;-64
2024/02/25 00:18:13;;;;;;;16.38;11.60;;;1.90;99.90;;;;;;5105636;28;20055;-62
2024/02/25 00:20:40;;;;;;;17.33;12.32;;;1.90;99.90;;;;;;5102156;28;20126;-64
2024/02/25 00:23:07;;;;;;;17.33;10.55;;;2.00;99.90;;;;;;5102987;28;20032;-64
2024/02/25 00:25:37;;;;;;;14.35;10.35;;;2.00;99.90;;;;;;5108322;28;20046;-64
2024/02/25 00:28:04;;;;;;;16.42;9.85;;;2.00;99.90;;;;;;5089954;28;20066;-62
2024/02/25 00:30:31;;;;;;;19.58;12.07;;;2.10;99.90;;;;;;5089248;28;20532;-64
2024/02/25 00:32:58;;;;;;;21.58;11.50;;;2.20;99.90;;;;;;5103509;28;20051;-61
2024/02/25 00:35:25;;;;;;;18.35;12.40;;;2.20;99.90;;;;;;5088733;28;20092;-63
2024/02/25 00:37:52;;;;;;;17.00;11.40;;;2.30;99.90;;;;;;5108352;28;20140;-65
2024/02/25 00:40:19;;;;;;;18.80;11.35;;;2.30;99.90;;;;;;5106801;28;20055;-62
2024/02/25 00:42:46;;;;;;;15.32;10.63;;;2.30;99.90;;;;;;5090678;28;20044;-68
2024/02/25 00:45:13;;;;;;;17.15;11.43;;;2.40;99.90;;;;;;5104487;28;20047;-64
2024/02/25 00:47:40;;;;;;;16.20;10.68;;;2.40;99.90;;;;;;5105927;28;20093;-62
2024/02/25 00:50:09;;;;;;;16.00;10.32;;;2.50;99.90;;;;;;5105220;28;20136;-66
2024/02/25 00:52:36;;;;;;;14.95;11.80;;;2.50;99.90;;;;;;5106838;28;20114;-62
2024/02/25 00:55:04;;;;;;;19.42;12.05;;;2.50;99.90;;;;;;5108813;28;20108;-65
2024/02/25 00:57:31;;;;;;;20.50;11.88;;;2.60;99.90;;;;;;5108872;28;20040;-68
2024/02/25 00:59:58;;;;;;;16.33;12.32;;;2.60;99.90;;;;;;5107268;28;20475;-62
2024/02/25 01:02:25;;;;;;;19.83;12.57;;;2.60;99.90;;;;;;5106673;28;20048;-66
2024/02/25 01:04:52;;;;;;;23.00;14.48;;;2.70;99.90;;;;;;5105731;28;20395;-63
2024/02/25 01:07:19;;;;;;;16.02;10.82;;;2.60;99.90;;;;;;5106838;28;20063;-64
2024/02/25 01:09:46;;;;;;;15.70;10.45;;;2.60;99.90;;;;;;5107936;28;20036;-68
2024/02/25 01:12:13;;;;;;;17.23;11.18;;;2.60;99.90;;;;;;5107535;28;20036;-62
2024/02/25 01:14:41;;;;;;;16.20;9.27;;;2.60;99.90;;;;;;5106274;28;20773;-63
2024/02/25 01:17:08;;;;;;;13.75;10.90;;;2.50;99.90;;;;;;5108458;28;20055;-62
2024/02/25 01:19:35;;;;;;;17.08;11.93;;;2.50;99.90;;;;;;5106195;28;20040;-64
2024/02/25 01:22:02;;;;;;;21.83;12.13;;;2.40;99.90;;;;;;5104202;28;20051;-67
2024/02/25 01:24:29;;;;;;;19.92;12.00;;;2.50;99.90;;;;;;5090226;28;20667;-70
2024/02/25 01:26:56;;;;;;;18.00;12.32;;;2.40;99.90;;;;;;5108576;28;20047;-63
2024/02/25 01:29:23;;;;;;;16.90;10.55;;;2.40;99.90;;;;;;5107821;28;20055;-63
2024/02/25 01:31:52;;;;;;;18.13;13.23;;;2.40;99.90;;;;;;5107835;28;20066;-61
2024/02/25 01:34:21;;;;;;;16.52;10.95;;;2.30;99.90;;;;;;5109576;28;20378;-60
2024/02/25 01:36:48;;;;;;;17.33;11.25;;;2.30;99.90;;;;;;5109768;28;20060;-63
2024/02/25 01:39:15;;;;;;;16.13;10.45;;;2.30;99.90;;;;;;5111202;28;20057;-59
2024/02/25 01:41:42;;;;;;;20.30;11.88;;;2.30;99.90;;;;;;5110313;28;20483;-61
2024/02/25 01:44:11;;;;;;;14.68;10.45;;;2.30;99.90;;;;;;5111322;28;20043;-60
2024/02/25 01:46:39;;;;;;;15.32;10.57;;;2.40;99.90;;;;;;5108538;28;20054;-61
2024/02/25 01:49:06;;;;;;;13.73;11.32;;;2.40;99.90;;;;;;5109652;28;20044;-65
2024/02/25 01:51:34;;;;;;;14.82;10.00;;;2.40;99.90;;;;;;5110441;28;20043;-62
2024/02/25 01:54:01;;;;;;;16.75;10.32;;;2.40;99.90;;;;;;5093010;28;20151;-61
2024/02/25 01:56:28;;;;;;;17.42;11.07;;;2.30;99.90;;;;;;5091731;28;20131;-64
2024/02/25 01:58:56;;;;;;;17.48;11.10;;;2.40;99.90;;;;;;5092745;28;20548;-64
2024/02/25 02:01:25;;;;;;;23.02;11.50;;;2.30;99.90;;;;;;5110784;28;20048;-61
2024/02/25 02:03:52;;;;;;;16.38;9.73;;;2.40;99.90;;;;;;5111488;28;20047;-62
2024/02/25 02:06:19;;;;;;;16.08;11.90;;;2.30;99.90;;;;;;5110070;28;20487;-63
2024/02/25 02:08:46;;;;;;;17.35;11.38;;;2.30;99.90;;;;;;5111481;28;20051;-64
2024/02/25 02:11:22;;;;;;;16.42;11.40;;;2.30;99.90;;;;;;5103965;28;20036;-62
2024/02/25 02:13:49;;;;;;;15.50;11.55;;;2.30;99.90;;;;;;5108615;28;20035;-61
2024/02/25 02:16:16;;;;;;;17.85;12.10;;;2.30;99.90;;;;;;5111482;28;20718;-65
2024/02/25 02:18:44;;;;;;;22.38;14.73;;;2.30;99.90;;;;;;5108180;28;20061;-63
2024/02/25 02:21:18;;;;;;;20.17;13.18;;;2.30;99.90;;;;;;5109660;28;20134;-66
2024/02/25 02:23:45;;;;;;;20.92;13.63;;;2.30;99.90;;;;;;5110441;28;20051;-60
2024/02/25 02:26:12;;;;;;;25.17;15.85;;;2.30;99.90;;;;;;5110696;28;20048;-67
2024/02/25 02:28:39;;;;;;;24.35;14.40;;;2.20;99.90;;;;;;5109213;28;20403;-63
2024/02/25 02:31:06;;;;;;;25.10;14.73;;;2.20;99.90;;;;;;5110564;28;20593;-62
2024/02/25 02:33:38;;;;;;;21.08;14.02;;;2.20;99.90;;;;;;5110493;28;20104;-66
2024/02/25 02:36:06;;;;;;;19.45;13.57;;;2.10;99.90;;;;;;5089033;28;20094;-62
2024/02/25 02:38:33;;;;;;;23.85;14.55;;;2.10;99.90;;;;;;5108974;28;20391;-68
2024/02/25 02:41:00;;;;;;;22.25;13.65;;;2.10;99.90;;;;;;5108893;28;20494;-61
2024/02/25 02:43:27;;;;;;;17.80;11.88;;;2.10;99.90;;;;;;5091958;28;20097;-62
2024/02/25 02:45:55;;;;;;;18.58;12.15;;;2.10;99.90;;;;;;5105684;28;20059;-61
2024/02/25 02:48:22;;;;;;;21.33;13.13;;;2.10;99.90;;;;;;5109894;28;20543;-61
2024/02/25 02:50:49;;;;;;;21.95;12.02;;;2.10;99.90;;;;;;5091753;28;20040;-61
2024/02/25 02:53:17;;;;;;;21.05;13.05;;;2.20;99.90;;;;;;5105542;28;20483;-63
2024/02/25 02:55:45;;;;;;;21.25;13.43;;;2.20;99.90;;;;;;5104175;28;20040;-64
2024/02/25 02:58:12;;;;;;;20.23;11.85;;;2.20;99.90;;;;;;5108092;28;20036;-61
2024/02/25 03:00:39;;;;;;;19.13;12.07;;;2.30;99.90;;;;;;5089007;28;20043;-63
2024/02/25 03:03:06;;;;;;;17.02;11.98;;;2.30;99.90;;;;;;5108666;28;20600;-66
2024/02/25 03:05:33;;;;;;;17.30;12.75;;;2.40;99.90;;;;;;5106342;28;20058;-64
2024/02/25 03:08:00;;;;;;;19.73;12.55;;;2.50;99.90;;;;;;5109276;28;20044;-61
2024/02/25 03:10:29;;;;;;;20.80;13.38;;;2.50;99.90;;;;;;5106003;28;20469;-65
2024/02/25 03:12:56;;;;;;;17.35;11.88;;;2.60;99.90;;;;;;5108927;28;20044;-65
2024/02/25 03:15:23;;;;;;;18.30;12.55;;;2.60;99.90;;;;;;5106547;28;20077;-69
2024/02/25 03:17:50;;;;;;;19.48;13.18;;;2.60;99.90;;;;;;5106910;28;20069;-61
2024/02/25 03:20:19;;;;;;;20.20;12.35;;;2.60;99.90;;;;;;5107478;28;20092;-65
2024/02/25 03:22:46;;;;;;;21.00;11.60;;;2.60;99.90;;;;;;5109349;28;20051;-68
2024/02/25 03:25:14;;;;;;;20.85;14.32;;;2.60;99.90;;;;;;5109078;28;20035;-62
2024/02/25 03:27:41;;;;;;;27.25;14.07;;;2.60;99.90;;;;;;5107817;28;20460;-61
2024/02/25 03:30:08;;;;;;;17.40;12.10;;;2.60;99.90;;;;;;5109028;28;20071;-68
2024/02/25 03:32:35;;;;;;;18.90;11.88;;;2.60;99.90;;;;;;5103446;28;20631;-62
2024/02/25 03:35:03;;;;;;;16.92;13.45;;;2.60;99.90;;;;;;5105024;28;20101;-60
2024/02/25 03:37:30;;;;;;;16.48;13.38;;;2.60;99.90;;;;;;5108987;28;20146;-70
2024/02/25 03:39:57;;;;;;;16.02;12.15;;;2.60;99.90;;;;;;5109863;28;20687;-64
2024/02/25 03:42:27;;;;;;;16.73;12.90;;;2.60;99.90;;;;;;5109286;28;20130;-61
2024/02/25 03:44:54;;;;;;;20.27;13.27;;;2.70;99.90;;;;;;5108248;28;20096;-65
2024/02/25 03:47:23;;;;;;;17.75;12.48;;;2.60;99.90;;;;;;5106507;28;20071;-65
2024/02/25 03:49:50;;;;;;;22.98;13.52;;;2.60;99.90;;;;;;5107042;28;20079;-61
2024/02/25 03:52:17;;;;;;;21.95;12.63;;;2.60;99.90;;;;;;5108471;28;20056;-67
2024/02/25 03:54:47;;;;;;;19.95;11.82;;;2.60;99.90;;;;;;5109281;28;20058;-64
2024/02/25 03:57:14;;;;;;;15.20;11.00;;;2.70;99.90;;;;;;5107499;28;20071;-67
2024/02/25 03:59:41;;;;;;;20.00;12.02;;;2.70;99.90;;;;;;5105351;28;20122;-62
2024/02/25 04:02:08;;;;;;;22.63;12.73;;;2.70;99.90;;;;;;5106692;28;20499;-64
2024/02/25 04:04:35;;;;;;;16.75;11.45;;;2.70;99.90;;;;;;5090657;28;20044;-65
2024/02/25 04:07:03;;;;;;;15.68;10.82;;;2.80;99.90;;;;;;5103569;28;20055;-60
2024/02/25 04:09:30;;;;;;;18.40;11.75;;;2.80;99.90;;;;;;5102783;28;20047;-61
2024/02/25 04:11:57;;;;;;;14.73;9.88;;;2.80;99.90;;;;;;5106742;28;20123;-64
2024/02/25 04:14:24;;;;;;;16.83;9.90;;;2.80;99.90;;;;;;5107017;28;20534;-62
2024/02/25 04:16:51;;;;;;;11.20;8.98;;;2.80;99.90;;;;;;5108475;28;20123;-60
2024/02/25 04:19:18;;;;;;;15.27;8.75;;;2.80;99.90;;;;;;5108491;28;20517;-67
2024/02/25 04:21:45;;;;;;;16.23;8.60;;;2.80;99.90;;;;;;5105114;28;20043;-62
2024/02/25 04:24:11;;;;;;;14.68;9.30;;;2.90;99.90;;;;;;5106840;28;20042;-61
2024/02/25 04:26:47;;;;;;;12.52;8.85;;;2.90;99.90;;;;;;5107005;28;20471;-62
2024/02/25 04:29:14;;;;;;;11.38;7.88;;;2.90;99.90;;;;;;5107881;28;20054;-61
2024/02/25 04:31:43;;;;;;;15.80;9.65;;;2.90;99.90;;;;;;5108115;28;20601;-60
2024/02/25 04:34:10;;;;;;;11.65;9.73;;;3.00;99.90;;;;;;5107449;28;20096;-62
2024/02/25 04:36:41;;;;;;;12.73;8.25;;;3.00;99.90;;;;;;5108147;28;20705;-62
2024/02/25 04:39:10;;;;;;;12.55;8.73;;;3.00;99.90;;;;;;5105820;28;20122;-65
2024/02/25 04:41:38;;;;;;;13.25;8.43;;;3.00;99.90;;;;;;5105315;28;20043;-66
2024/02/25 04:44:08;;;;;;;13.77;7.95;;;3.10;99.90;;;;;;5107165;28;20044;-63
2024/02/25 04:46:35;;;;;;;14.40;8.75;;;3.10;99.90;;;;;;5106365;28;20050;-62
2024/02/25 04:49:02;;;;;;;15.23;9.02;;;3.20;99.90;;;;;;5107708;28;20039;-66
2024/02/25 04:51:33;;;;;;;9.85;7.78;;;3.20;99.90;;;;;;5105809;28;20058;-63
2024/02/25 04:54:01;;;;;;;16.17;7.63;;;3.20;99.90;;;;;;5107334;28;20046;-64
2024/02/25 04:56:28;;;;;;;12.43;7.65;;;3.30;99.90;;;;;;5106314;28;20043;-64
2024/02/25 04:58:56;;;;;;;8.88;6.80;;;3.30;99.90;;;;;;5107652;28;20035;-60
2024/02/25 05:01:23;;;;;;;22.02;7.50;;;3.40;99.90;;;;;;5103902;28;20395;-62
2024/02/25 05:03:50;;;;;;;11.88;7.50;;;3.40;99.90;;;;;;5107712;28;20036;-61
2024/02/25 05:06:17;;;;;;;10.15;6.95;;;3.40;99.90;;;;;;5107609;28;20043;-65
2024/02/25 05:08:44;;;;;;;11.05;7.13;;;3.40;99.90;;;;;;5104966;28;20446;-63
2024/02/25 05:11:11;;;;;;;11.20;7.82;;;3.40;99.90;;;;;;5110767;28;20044;-62
2024/02/25 05:13:38;;;;;;;12.30;7.40;;;3.40;99.90;;;;;;5105993;28;20055;-62
2024/02/25 05:16:08;;;;;;;9.05;7.63;;;3.40;99.90;;;;;;5109734;28;20052;-61
2024/02/25 05:18:35;;;;;;;;;;;3.40;99.90;;;;;;5110541;28;20539;-64
2024/02/25 05:21:02;;;;;;;9.65;7.57;;;3.40;99.90;;;;;;5109045;28;19919;-62
2024/02/25 05:23:30;;;;;;;10.65;5.97;;;3.40;99.90;;;;;;5109041;28;20040;-64
2024/02/25 05:25:57;;;;;;;8.45;6.40;;;3.30;99.90;;;;;;5109424;28;20190;-66
2024/02/25 05:28:24;;;;;;;8.18;5.40;;;3.40;99.90;;;;;;5111614;28;20056;-62
2024/02/25 05:30:51;;;;;;;9.93;6.55;;;3.30;99.90;;;;;;5111137;28;20048;-60
2024/02/25 05:33:19;;;;;;;8.63;6.38;;;3.30;99.90;;;;;;5110874;28;20105;-63
2024/02/25 05:35:46;;;;;;;8.18;6.43;;;3.30;99.90;;;;;;5111661;28;20056;-64
2024/02/25 05:38:14;;;;;;;10.63;7.70;;;3.30;99.90;;;;;;5110974;28;20055;-60
2024/02/25 05:40:42;;;;;;;11.80;7.43;;;3.20;99.90;;;;;;5108407;28;20535;-61
2024/02/25 05:43:12;;;;;;;13.85;6.47;;;3.20;99.90;;;;;;5104719;28;20043;-63
2024/02/25 05:45:39;;;;;;;9.85;5.70;;;3.20;99.90;;;;;;5108458;28;20047;-61
2024/02/25 05:48:07;;;;;;;10.18;7.10;;;3.20;99.90;;;;;;5110434;28;20044;-62
2024/02/25 05:50:34;;;;;;;9.70;6.22;;;3.10;99.90;;;;;;5111196;28;20119;-60
2024/02/25 05:53:01;;;;;;;18.05;7.70;;;3.20;99.90;;;;;;5109163;28;20051;-61
2024/02/25 05:55:28;;;;;;;9.75;6.80;;;3.20;99.90;;;;;;5107607;28;20134;-68
2024/02/25 05:57:55;;;;;;;10.95;5.95;;;3.10;99.90;;;;;;5111347;28;20183;-60
2024/02/25 06:00:22;;;;;;;13.25;7.00;;;3.10;99.90;;;;;;5111345;28;20101;-62
2024/02/25 06:02:49;;;;;;;10.77;7.43;;;3.00;99.90;;;;;;5105051;28;20048;-65
2024/02/25 06:05:16;;;;;;;7.97;5.03;;;3.00;99.90;;;;;;5109150;28;20061;-60
2024/02/25 06:07:44;;;;;;;9.55;6.18;;;3.00;99.90;;;;;;5108828;28;20039;-62
2024/02/25 06:10:12;;;;;;;15.48;6.15;;;3.00;99.90;;;;;;5108523;28;20039;-61
2024/02/25 06:12:39;;;;;;;10.80;6.47;;;3.00;99.90;;;;;;5108599;28;20055;-65
2024/02/25 06:15:11;;;;;;;9.73;5.82;;;3.00;99.90;;;;;;5106035;28;20036;-65
2024/02/25 06:17:39;;;;;;;8.10;6.03;;;3.00;99.90;;;;;;5105021;28;20043;-63
2024/02/25 06:20:09;;;;;;;9.90;7.00;;;3.00;99.90;;;;;;5091160;28;20043;-64
2024/02/25 06:22:38;;;;;;;14.20;6.07;;;3.00;99.90;;;;;;5106663;28;20101;-67
2024/02/25 06:25:06;;;;;;;7.82;6.40;;;3.00;99.90;;;;;;5108303;28;20048;-61
2024/02/25 06:27:37;;;;;;;7.50;5.85;;;3.00;99.90;;;;;;5107457;28;20089;-63
2024/02/25 06:30:05;;;;;;;8.88;5.75;;;3.00;99.90;;;;;;5107627;28;20406;-61
2024/02/25 06:32:33;;;;;;;11.88;6.43;;;3.00;99.90;;;;;;5102768;28;20138;-67
2024/02/25 06:35:02;;;;;;;12.10;6.60;;;3.00;99.90;;;;;;5107674;28;20054;-62
2024/02/25 06:37:29;;;;;;;10.68;5.47;;;3.00;99.90;;;;;;5108070;28;20471;-62
2024/02/25 06:39:57;;;;;;;10.65;5.93;;;3.10;99.90;;;;;;5110271;28;20054;-62
2024/02/25 06:42:24;;;;;;;10.65;5.47;;;3.10;99.90;;;;;;5108514;28;20112;-62
2024/02/25 06:44:51;;;;;;;7.13;6.07;;;3.10;99.90;;;;;;5108944;28;20039;-60
2024/02/25 06:47:18;;;;;;;12.25;6.95;;;3.10;99.90;;;;;;5106068;28;20124;-63
2024/02/25 06:49:44;;;;;;;9.15;6.00;;;3.10;99.90;;;;;;5110116;28;20043;-61
2024/02/25 06:52:12;;;;;;;10.32;5.18;;;3.10;99.90;;;;;;5108453;28;20047;-62
2024/02/25 06:54:43;;;;;;;7.95;5.45;;;3.10;99.90;;;;;;5109004;28;20032;-60
2024/02/25 06:57:15;;;;;;;10.77;6.03;;;3.10;99.90;;;;;;5109769;28;20040;-63
2024/02/25 06:59:42;;;;;;;5.63;4.70;;;3.10;99.90;;;;;;5092207;28;20410;-62
2024/02/25 07:02:09;;;;;;;8.18;6.63;;;3.10;99.90;;;;;;5109882;28;20044;-64
2024/02/25 07:04:36;;;;;;;10.63;5.45;;;3.10;99.90;;;;;;5106185;28;20046;-65
2024/02/25 07:07:04;;;;;;;8.68;5.30;;;3.10;99.90;;;;;;5103896;28;20058;-63
2024/02/25 07:09:32;;;;;;;10.43;5.35;;;3.10;99.90;;;;;;5107915;28;20048;-62
2024/02/25 07:11:59;;;;;;;8.25;5.22;;;3.10;99.90;;;;;;5104626;28;20051;-65
2024/02/25 07:14:28;;;;;;;12.00;6.05;;;3.10;99.90;;;;;;5109309;28;20063;-61
2024/02/25 07:16:55;;;;;;;12.40;6.47;;;3.10;99.90;;;;;;5106036;28;20044;-61
2024/02/25 07:19:22;;;;;;;9.60;5.53;;;3.20;99.90;;;;;;5103071;28;20509;-63
2024/02/25 07:21:50;;;;;;;8.38;6.32;;;3.20;99.90;;;;;;5103895;28;20069;-66
2024/02/25 07:24:17;;;;;;;9.43;5.13;;;3.20;99.90;;;;;;5107081;28;20046;-64
2024/02/25 07:26:45;;;;;;;9.68;5.45;;;3.20;99.90;;;;;;5106731;28;20036;-63
2024/02/25 07:29:13;;;;;;;11.80;6.32;;;3.20;99.90;;;;;;5109516;28;20047;-63
2024/02/25 07:31:40;;;;;;;12.15;6.40;;;3.20;99.90;;;;;;5107063;28;20039;-65
2024/02/25 07:34:07;;;;;;;8.88;5.95;;;3.20;99.90;;;;;;5108272;28;20036;-63
2024/02/25 07:36:35;;;;;;;14.32;7.22;;;3.30;99.90;;;;;;5108874;28;20422;-63
2024/02/25 07:39:02;;;;;;;9.82;6.53;;;3.30;99.90;;;;;;5108134;28;20548;-61
2024/02/25 07:41:29;;;;;;;11.10;6.90;;;3.30;99.90;;;;;;5107141;28;20036;-62
2024/02/25 07:43:56;;;;;;;9.50;5.78;;;3.40;99.90;;;;;;5107133;28;20047;-61
2024/02/25 07:46:25;;;;;;;7.22;6.35;;;3.50;99.90;;;;;;5107291;28;20044;-61
2024/02/25 07:48:52;;;;;;;9.13;6.63;;;3.50;99.90;;;;;;5107293;28;20043;-65
2024/02/25 07:51:19;;;;;;;6.35;5.10;;;3.60;99.90;;;;;;5106753;28;20054;-66
2024/02/25 07:53:48;;;;;;;9.43;5.47;;;3.60;99.90;;;;;;5107961;28;20407;-61
2024/02/25 07:56:19;;;;;;;10.93;5.90;;;3.60;99.90;;;;;;5103498;28;20047;-61
2024/02/25 07:58:47;;;;;;;8.80;6.32;;;3.60;99.90;;;;;;5104080;28;20070;-64
2024/02/25 08:01:14;;;;;;;10.02;5.70;;;3.70;99.90;;;;;;5110049;28;20048;-65
2024/02/25 08:03:41;;;;;;;8.90;6.50;;;3.70;99.90;;;;;;5108461;28;20467;-63
2024/02/25 08:06:08;;;;;;;8.13;6.07;;;3.70;99.90;;;;;;5105868;28;20047;-60
2024/02/25 08:08:35;;;;;;;11.48;7.07;;;3.70;99.90;;;;;;5104436;28;20043;-61
2024/02/25 08:11:03;;;;;;;7.22;4.93;;;3.80;99.90;;;;;;5103881;28;20040;-61
2024/02/25 08:13:30;;;;;;;7.13;5.53;;;3.90;99.90;;;;;;5108105;28;20051;-63
2024/02/25 08:15:57;;;;;;;9.98;5.90;;;3.90;99.90;;;;;;5105761;28;20379;-65
2024/02/25 08:18:24;;;;;;;12.75;5.30;;;3.90;99.90;;;;;;5108787;28;20058;-60
2024/02/25 08:20:51;;;;;;;7.47;5.63;;;4.00;99.90;;;;;;5104846;28;20442;-61
2024/02/25 08:23:18;;;;;;;5.80;4.82;;;4.10;99.90;;;;;;5109207;28;20126;-61
2024/02/25 08:25:45;;;;;;;7.93;6.47;;;4.20;99.90;;;;;;5108796;28;20043;-64
2024/02/25 08:28:13;;;;;;;12.18;5.53;;;4.20;99.90;;;;;;5108301;28;20450;-65
2024/02/25 08:30:39;;;;;;;9.82;5.30;;;4.20;99.90;;;;;;5109470;28;20044;-64
2024/02/25 08:33:06;;;;;;;10.88;5.53;;;4.30;99.90;;;;;;5105367;28;20043;-64
2024/02/25 08:35:33;;;;;;;10.63;5.35;;;4.40;99.90;;;;;;5090247;28;20402;-66
2024/02/25 08:38:01;;;;;;;5.72;4.90;;;4.40;99.90;;;;;;5105818;28;20056;-60
2024/02/25 08:40:28;;;;;;;6.07;4.63;;;4.50;99.90;;;;;;5104788;28;20055;-61
2024/02/25 08:42:55;;;;;;;9.15;6.05;;;4.60;99.90;;;;;;5105872;28;20058;-61
2024/02/25 08:45:23;;;;;;;9.88;5.25;;;4.70;99.90;;;;;;5111269;28;20036;-60
2024/02/25 08:47:50;;;;;;;7.90;4.25;;;4.70;99.90;;;;;;5091067;28;20083;-65
2024/02/25 08:50:17;;;;;;;11.68;4.85;;;4.80;99.90;;;;;;5093704;28;20050;-60
2024/02/25 08:52:44;;;;;;;6.35;5.07;;;4.80;99.90;;;;;;5108368;28;20044;-63
2024/02/25 08:55:11;;;;;;;7.65;4.90;;;4.90;99.90;;;;;;5110995;28;20035;-62
2024/02/25 08:57:38;;;;;;;7.57;5.40;;;5.00;99.90;;;;;;5110066;28;20031;-60
2024/02/25 09:00:07;;;;;;;8.75;6.13;;;5.00;99.90;;;;;;5111134;28;20059;-61
2024/02/25 09:02:35;;;;;;;8.23;5.72;;;5.10;99.90;;;;;;5107757;28;20097;-62
2024/02/25 09:05:02;;;;;;;12.18;6.45;;;5.20;99.90;;;;;;5109911;28;20044;-63
2024/02/25 09:07:31;;;;;;;8.05;5.07;;;5.20;99.90;;;;;;5110596;28;20047;-60
2024/02/25 09:09:58;;;;;;;7.30;4.60;;;5.30;99.90;;;;;;5111442;28;20048;-60
2024/02/25 09:12:25;;;;;;;7.15;3.95;;;5.40;99.90;;;;;;5111136;28;20035;-62
2024/02/25 09:14:52;;;;;;;5.93;4.53;;;5.40;99.90;;;;;;5108841;28;20047;-62
2024/02/25 09:17:19;;;;;;;6.45;4.00;;;5.50;99.90;;;;;;5109405;28;20040;-60
2024/02/25 09:19:46;;;;;;;8.30;4.18;;;5.60;99.90;;;;;;5106962;28;20052;-63
2024/02/25 09:22:13;;;;;;;5.15;4.43;;;5.70;99.90;;;;;;5109423;28;20080;-64
2024/02/25 09:24:43;;;;;;;7.00;4.47;;;5.80;99.90;;;;;;5109549;28;20058;-61
2024/02/25 09:27:10;;;;;;;3.72;3.08;;;5.80;99.90;;;;;;5091840;28;20047;-61
2024/02/25 09:29:43;;;;;;;3.63;3.20;;;5.90;99.90;;;;;;5110730;28;20187;-64
2024/02/25 09:32:10;;;;;;;5.15;3.55;;;5.90;99.90;;;;;;5111442;28;20047;-61
2024/02/25 09:34:39;;;;;;;4.43;3.42;;;6.00;99.90;;;;;;5108220;28;20040;-62
2024/02/25 09:37:07;;;;;;;;;;;6.00;99.90;;;;;;5066727;28;1144350;-62
2024/02/25 09:39:34;;;;;;;5.35;3.60;;;6.10;99.90;;;;;;5109182;28;20015;-67
2024/02/25 09:42:06;;;;;;;6.20;3.42;;;6.20;99.90;;;;;;5112739;28;20069;-63
2024/02/25 09:44:37;;;;;;;3.33;2.92;;;6.20;99.90;;;;;;5110893;28;20114;-64
2024/02/25 09:47:07;;;;;;;9.48;3.38;;;6.20;99.90;;;;;;5108827;28;20538;-64
2024/02/25 09:49:35;;;;;;;2.92;2.72;;;6.30;99.90;;;;;;5109269;28;20048;-64
2024/02/25 09:52:06;;;;;;;3.22;2.92;;;6.30;99.90;;;;;;5109687;28;20067;-70
2024/02/25 09:54:36;;;;;;;3.75;3.42;;;6.40;99.90;;;;;;5108258;28;20049;-63
2024/02/25 09:57:03;;;;;;;3.10;2.42;;;6.50;99.90;;;;;;5111623;28;20047;-67
2024/02/25 09:59:30;;;;;;;3.58;2.47;;;6.60;99.90;;;;;;5110980;28;20047;-63
2024/02/25 10:01:57;;;;;;;3.67;3.05;;;6.60;99.90;;;;;;5110349;28;20505;-64
2024/02/25 10:04:26;;;;;;;4.60;2.72;;;6.70;99.90;;;;;;5109903;28;20044;-66
2024/02/25 10:06:56;;;;;;;3.63;3.33;;;6.80;99.90;;;;;;5111520;28;20043;-65
2024/02/25 10:09:30;;;;;;;2.97;2.63;;;6.80;99.90;;;;;;5110525;28;20054;-64
2024/02/25 10:11:58;;;;;;;2.20;2.00;;;6.90;99.90;;;;;;5109835;28;20402;-65
2024/02/25 10:14:26;;;;;;;2.83;2.55;;;7.00;99.90;;;;;;5110864;28;20036;-61
2024/02/25 10:17:03;;;;;;;2.50;2.30;;;7.10;99.90;;;;;;5106722;28;20456;-66
2024/02/25 10:19:31;;;;;;;4.75;2.85;;;7.20;99.90;;;;;;5102889;28;20038;-69
2024/02/25 10:22:09;;;;;;;4.53;3.35;;;7.20;99.90;;;;;;5108516;28;20048;-63
2024/02/25 10:24:37;;;;;;;5.72;2.30;;;7.20;99.90;;;;;;5110452;28;20042;-67
2024/02/25 10:27:08;;;;;;;3.80;2.97;;;7.20;99.90;;;;;;5109569;28;20113;-61
2024/02/25 10:29:51;;;;;;;3.50;2.75;;;7.20;99.90;;;;;;5109096;28;20478;-71
2024/02/25 10:32:26;;;;;;;3.90;2.67;;;7.20;99.90;;;;;;5109458;28;20043;-65
2024/02/25 10:34:55;;;;;;;4.30;2.70;;;7.30;99.90;;;;;;5104205;28;20818;-73
2024/02/25 10:37:27;;;;;;;3.33;2.97;;;7.10;99.90;;;;;;5110910;28;20060;-66
2024/02/25 10:39:59;;;;;;;5.53;3.22;;;6.90;99.90;;;;;;5102354;28;20042;-67
2024/02/25 10:42:27;;;;;;;3.45;3.05;;;6.80;99.90;;;;;;5109021;28;20100;-61
2024/02/25 10:44:56;;;;;;;3.92;2.00;;;6.70;99.90;;;;;;5108750;28;20554;-64
2024/02/25 10:47:25;;;;;;;3.65;2.70;;;6.70;99.90;;;;;;5106296;28;20491;-65
2024/02/25 10:49:55;;;;;;;3.77;2.47;;;6.70;99.90;;;;;;5109320;28;20092;-61
2024/02/25 10:52:26;;;;;;;4.63;2.88;;;6.60;99.90;;;;;;5091722;28;20139;-62
2024/02/25 10:54:53;;;;;;;4.60;2.90;;;6.60;99.90;;;;;;5106498;28;20039;-73
2024/02/25 10:57:21;;;;;;;2.83;2.47;;;6.50;99.90;;;;;;5109674;28;20101;-62
2024/02/25 10:59:49;;;;;;;2.90;2.65;;;6.50;99.90;;;;;;5109573;28;20043;-61
2024/02/25 11:02:18;;;;;;;3.30;2.72;;;6.40;99.90;;;;;;5108120;28;20048;-66
2024/02/25 11:04:46;;;;;;;3.25;2.65;;;6.40;99.90;;;;;;5105446;28;20046;-63
2024/02/25 11:07:17;;;;;;;4.93;2.97;;;6.50;99.90;;;;;;5090781;28;20130;-64
2024/02/25 11:09:44;;;;;;;5.80;3.45;;;6.50;99.90;;;;;;5110421;28;20481;-62
2024/02/25 11:12:23;;;;;;;3.97;2.53;;;6.60;99.90;;;;;;5108875;28;20055;-63
2024/02/25 11:15:04;;;;;;;3.30;2.50;;;6.60;99.90;;;;;;5109766;28;20051;-68
2024/02/25 11:17:36;;;;;;;4.03;2.63;;;6.60;99.90;;;;;;5108099;28;20056;-68
2024/02/25 11:20:08;;;;;;;8.30;3.53;;;6.60;99.90;;;;;;5109850;28;20127;-63
2024/02/25 11:22:46;;;;;;;6.18;2.40;;;6.60;99.90;;;;;;5109108;28;20410;-66
2024/02/25 11:25:25;;;;;;;2.95;2.70;;;6.70;99.90;;;;;;5108593;28;20487;-65
2024/02/25 11:28:10;;;;;;;3.88;3.10;;;6.70;99.90;;;;;;5110244;28;20628;-63
2024/02/25 11:30:43;;;;;;;5.95;2.95;;;6.70;99.90;;;;;;5109079;28;20183;-64
2024/02/25 11:33:33;;;;;;;6.45;3.50;;;6.70;99.90;;;;;;5107774;28;20092;-65
2024/02/25 11:36:22;;;;;;;3.00;2.58;;;6.80;99.90;;;;;;5106409;28;20127;-63
2024/02/25 11:38:49;;;;;;;5.80;3.95;;;6.80;99.90;;;;;;5105310;28;20104;-62
2024/02/25 11:41:18;;;;;;;3.70;2.95;;;6.80;99.90;;;;;;5105336;28;20047;-64
2024/02/25 11:43:45;;;;;;;3.38;2.78;;;6.80;99.90;;;;;;5107174;28;20062;-62
2024/02/25 11:46:12;;;;;;;5.13;3.20;;;6.80;99.90;;;;;;5109585;28;20039;-64
2024/02/25 11:48:39;;;;;;;7.20;5.03;;;6.80;99.90;;;;;;5108409;28;20479;-61
2024/02/25 11:51:06;;;;;;;5.03;3.63;;;6.70;99.90;;;;;;5105104;28;20134;-62
2024/02/25 11:53:34;;;;;;;4.25;3.17;;;6.70;99.90;;;;;;5107902;28;20044;-69
2024/02/25 11:56:01;;;;;;;5.85;4.05;;;6.70;99.90;;;;;;5104796;28;20047;-62
2024/02/25 11:58:28;;;;;;;4.28;3.25;;;6.70;99.90;;;;;;5106662;28;20052;-61
2024/02/25 12:00:55;;;;;;;5.45;2.97;;;6.70;99.90;;;;;;5105918;28;20047;-61
2024/02/25 12:03:23;;;;;;;4.63;2.97;;;6.70;99.90;;;;;;5108775;28;20047;-67
2024/02/25 12:05:51;;;;;;;3.85;3.45;;;6.60;99.90;;;;;;5105472;28;20088;-61
2024/02/25 12:08:19;;;;;;;6.18;3.67;;;6.60;99.90;;;;;;5109433;28;20050;-66
2024/02/25 12:10:47;;;;;;;4.57;3.42;;;6.70;99.90;;;;;;5109208;28;20097;-61
2024/02/25 12:13:14;;;;;;;4.30;3.67;;;6.80;99.90;;;;;;5109266;28;20039;-68
2024/02/25 12:15:42;;;;;;;4.72;4.03;;;6.90;99.90;;;;;;5107112;28;20039;-65
2024/02/25 12:18:10;;;;;;;4.85;3.35;;;6.90;99.90;;;;;;5106571;28;20144;-68
2024/02/25 12:20:38;;;;;;;4.57;3.65;;;6.90;99.90;;;;;;5105377;28;20043;-63
2024/02/25 12:23:07;;;;;;;4.90;3.65;;;7.00;99.90;;;;;;5108956;28;20039;-64
2024/02/25 12:25:34;;;;;;;3.65;3.15;;;7.00;99.90;;;;;;5107899;28;20043;-65
2024/02/25 12:28:13;;;;;;;3.63;3.22;;;7.10;99.90;;;;;;5109250;28;20529;-61
2024/02/25 12:30:44;;;;;;;6.55;3.83;;;7.10;99.90;;;;;;5106357;28;20061;-63
2024/02/25 12:33:11;;;;;;;5.47;3.85;;;7.10;99.90;;;;;;5105016;28;20391;-63
2024/02/25 12:35:39;;;;;;;6.53;3.33;;;7.10;99.90;;;;;;5102729;28;20044;-62
2024/02/25 12:38:09;;;;;;;6.35;3.92;;;7.10;99.90;;;;;;5107256;28;20075;-62
2024/02/25 12:40:35;;;;;;;4.13;3.03;;;7.20;99.90;;;;;;5108348;28;20052;-63
2024/02/25 12:43:04;;;;;;;5.07;3.88;;;7.30;99.90;;;;;;5108973;28;20452;-67
2024/02/25 12:45:31;;;;;;;4.65;3.58;;;7.40;99.90;;;;;;5108416;28;20043;-61
2024/02/25 12:47:58;;;;;;;6.82;3.80;;;7.50;99.90;;;;;;5106224;28;20498;-63
2024/02/25 12:50:25;;;;;;;4.78;2.90;;;7.50;99.90;;;;;;5107134;28;20048;-61
2024/02/25 12:52:52;;;;;;;6.90;4.57;;;7.60;99.90;;;;;;5106395;28;20071;-63